Time;durP1;ratioP1;P1;durP2;ratioP2;P2;SDS_P1;SDS_P2;PMS_P1;PMS_P2;Temp;Humidity;BMP_temperature;BMP_pressure;BME280_temperature;BME280_humidity;BME280_pressure;Samples;Min_cycle;Max_cycle;Signal;HPM_P1;HPM_P2
2022/07/01 00:00:04;;;;;;;0.60;0.60;;;24.90;51.20;;;;;;5045847;28;45190;-71
2022/07/01 00:02:32;;;;;;;0.50;0.50;;;24.90;51.00;;;;;;5046190;28;45157;-69
2022/07/01 00:04:59;;;;;;;0.40;0.40;;;24.90;51.50;;;;;;5046085;28;45465;-69
2022/07/01 00:07:25;;;;;;;0.60;0.60;;;24.90;51.20;;;;;;5045675;28;45358;-69
2022/07/01 00:09:52;;;;;;;1.35;0.77;;;24.80;51.10;;;;;;5035221;28;45098;-69
2022/07/01 00:12:20;;;;;;;1.65;0.60;;;24.80;51.30;;;;;;5025833;28;45185;-69
2022/07/01 00:14:47;;;;;;;0.85;0.50;;;24.80;51.30;;;;;;5026154;28;45369;-69
2022/07/01 00:17:14;;;;;;;0.50;0.50;;;24.80;51.20;;;;;;5025631;28;46368;-69
2022/07/01 00:19:41;;;;;;;0.40;0.40;;;24.80;51.30;;;;;;5025733;28;45249;-69
2022/07/01 00:22:08;;;;;;;0.40;0.40;;;24.80;51.10;;;;;;5025777;28;45190;-69
2022/07/01 00:24:35;;;;;;;0.60;0.60;;;24.80;51.30;;;;;;5026176;28;45646;-70
2022/07/01 00:27:01;;;;;;;0.85;0.50;;;24.80;51.50;;;;;;5025603;28;47300;-70
2022/07/01 00:29:30;;;;;;;0.60;0.60;;;24.80;51.90;;;;;;5025417;28;45384;-70
2022/07/01 00:31:56;;;;;;;0.68;0.50;;;24.80;51.20;;;;;;5025828;28;45313;-70
2022/07/01 00:34:23;;;;;;;2.45;0.65;;;24.80;51.40;;;;;;5025757;28;45579;-70
2022/07/01 00:36:50;;;;;;;0.40;0.40;;;24.80;51.30;;;;;;5025610;28;45610;-69
2022/07/01 00:39:17;;;;;;;0.50;0.50;;;24.70;51.10;;;;;;5025844;28;45269;-69
2022/07/01 00:41:44;;;;;;;1.20;0.50;;;24.70;51.30;;;;;;5025654;28;45400;-69
2022/07/01 00:44:17;;;;;;;0.57;0.55;;;24.80;51.30;;;;;;5025836;28;45431;-69
2022/07/01 00:46:46;;;;;;;0.50;0.50;;;24.70;51.30;;;;;;5024922;28;46400;-69
2022/07/01 00:49:12;;;;;;;1.23;0.50;;;24.70;51.50;;;;;;5025548;28;45254;-69
2022/07/01 00:51:39;;;;;;;0.95;0.30;;;24.70;51.20;;;;;;5025451;28;45202;-69
2022/07/01 00:54:06;;;;;;;0.47;0.47;;;24.70;51.30;;;;;;5039149;28;45463;-69
2022/07/01 00:56:33;;;;;;;0.43;0.43;;;24.70;51.20;;;;;;5045495;28;47327;-69
2022/07/01 00:59:00;;;;;;;0.98;0.47;;;24.70;51.20;;;;;;5048702;28;45252;-69
2022/07/01 01:01:27;;;;;;;0.57;0.57;;;24.70;51.40;;;;;;5048829;28;45312;-69
2022/07/01 01:03:55;;;;;;;0.70;0.50;;;24.70;51.20;;;;;;5048884;28;45175;-69
2022/07/01 01:06:22;;;;;;;1.48;0.50;;;24.70;51.20;;;;;;5048397;28;45477;-70
2022/07/01 01:08:49;;;;;;;1.08;0.60;;;24.70;51.10;;;;;;5046596;28;45414;-69
2022/07/01 01:11:17;;;;;;;0.50;0.47;;;24.70;51.30;;;;;;5028551;28;45317;-69
2022/07/01 01:13:43;;;;;;;0.68;0.50;;;24.70;51.20;;;;;;5028730;28;45547;-69
2022/07/01 01:16:17;;;;;;;0.50;0.50;;;24.70;51.10;;;;;;5028358;28;45233;-69
2022/07/01 01:18:44;;;;;;;0.40;0.40;;;24.60;51.10;;;;;;5028415;28;45271;-69
2022/07/01 01:21:12;;;;;;;0.50;0.50;;;24.60;51.40;;;;;;5028544;28;45190;-70
2022/07/01 01:23:39;;;;;;;0.90;0.50;;;24.60;51.20;;;;;;5028458;28;45524;-69
2022/07/01 01:26:18;;;;;;;0.40;0.40;;;24.60;51.10;;;;;;5028136;28;47271;-69
2022/07/01 01:28:45;;;;;;;1.85;0.40;;;24.60;51.20;;;;;;5028102;28;45237;-69
2022/07/01 01:31:12;;;;;;;0.80;0.80;;;24.60;51.20;;;;;;5028196;28;45214;-69
2022/07/01 01:33:39;;;;;;;0.50;0.50;;;24.60;51.30;;;;;;5028279;28;45373;-69
2022/07/01 01:36:06;;;;;;;0.77;0.50;;;24.60;51.10;;;;;;5027983;28;45601;-69
2022/07/01 01:38:35;;;;;;;1.50;0.43;;;24.50;51.20;;;;;;5028004;28;45266;-69
2022/07/01 01:41:02;;;;;;;0.50;0.40;;;24.50;51.40;;;;;;5028155;28;45186;-69
2022/07/01 01:43:29;;;;;;;0.50;0.50;;;24.50;51.10;;;;;;5028263;28;45318;-69
2022/07/01 01:45:56;;;;;;;0.50;0.50;;;24.50;51.20;;;;;;5027884;28;46697;-69
2022/07/01 01:48:23;;;;;;;0.30;0.30;;;24.50;51.30;;;;;;5027652;28;45328;-70
2022/07/01 01:50:50;;;;;;;0.60;0.40;;;24.50;51.30;;;;;;5028129;28;45201;-70
2022/07/01 01:53:17;;;;;;;1.10;0.50;;;24.50;51.10;;;;;;5034996;28;45440;-70
2022/07/01 01:55:45;;;;;;;0.47;0.47;;;24.50;51.50;;;;;;5047720;28;47636;-69
2022/07/01 01:58:12;;;;;;;0.50;0.40;;;24.50;51.30;;;;;;5047884;28;45249;-69
2022/07/01 02:00:38;;;;;;;0.60;0.45;;;24.50;51.10;;;;;;5047830;28;45225;-70
2022/07/01 02:03:05;;;;;;;0.43;0.43;;;24.50;51.50;;;;;;5047904;28;45455;-69
2022/07/01 02:05:33;;;;;;;0.57;0.50;;;24.50;51.10;;;;;;5047636;28;45495;-70
2022/07/01 02:08:00;;;;;;;0.50;0.50;;;24.50;51.10;;;;;;5047452;28;45287;-70
2022/07/01 02:10:27;;;;;;;0.28;0.28;;;24.50;51.50;;;;;;5046891;28;45319;-70
2022/07/01 02:12:55;;;;;;;0.30;0.30;;;24.40;51.10;;;;;;5047639;28;45335;-70
2022/07/01 02:15:22;;;;;;;0.35;0.35;;;24.40;51.20;;;;;;5047345;28;46344;-70
2022/07/01 02:17:49;;;;;;;0.80;0.80;;;24.40;51.20;;;;;;5047504;28;45328;-69
2022/07/01 02:20:16;;;;;;;0.85;0.50;;;24.50;51.40;;;;;;5047586;28;45402;-69
2022/07/01 02:22:43;;;;;;;0.38;0.38;;;24.40;51.30;;;;;;5047884;28;45332;-69
2022/07/01 02:25:10;;;;;;;0.28;0.28;;;24.40;51.30;;;;;;5047165;28;46293;-69
2022/07/01 02:27:37;;;;;;;0.40;0.40;;;24.40;51.30;;;;;;5047291;28;45238;-69
2022/07/01 02:30:06;;;;;;;0.45;0.45;;;24.40;51.30;;;;;;5047413;28;45295;-70
2022/07/01 02:32:33;;;;;;;0.40;0.40;;;24.40;51.20;;;;;;5047474;28;45296;-69
2022/07/01 02:35:00;;;;;;;0.40;0.40;;;24.40;51.20;;;;;;5047039;28;46741;-69
2022/07/01 02:37:27;;;;;;;1.35;0.38;;;24.30;51.40;;;;;;5047107;28;45271;-69
2022/07/01 02:39:54;;;;;;;0.30;0.30;;;24.30;51.30;;;;;;5047243;28;45400;-69
2022/07/01 02:42:25;;;;;;;0.28;0.28;;;24.30;51.60;;;;;;5047214;28;45411;-69
2022/07/01 02:44:52;;;;;;;0.52;0.47;;;24.30;51.30;;;;;;5046982;28;47036;-69
2022/07/01 02:47:21;;;;;;;0.40;0.40;;;24.30;51.40;;;;;;5046892;28;45406;-69
2022/07/01 02:49:47;;;;;;;2.75;0.40;;;24.30;51.70;;;;;;5047238;28;45402;-69
2022/07/01 02:52:15;;;;;;;0.47;0.47;;;24.30;51.30;;;;;;5047295;28;45298;-69
2022/07/01 02:54:42;;;;;;;0.30;0.30;;;24.30;51.50;;;;;;5046692;28;46669;-69
2022/07/01 02:57:09;;;;;;;0.40;0.40;;;24.30;51.50;;;;;;5046918;28;45245;-69
2022/07/01 02:59:36;;;;;;;1.00;0.40;;;24.30;51.70;;;;;;5046872;28;45233;-69
2022/07/01 03:02:02;;;;;;;0.40;0.40;;;24.30;51.70;;;;;;5047076;28;45303;-69
2022/07/01 03:04:31;;;;;;;0.52;0.40;;;24.30;51.70;;;;;;5046777;28;45495;-69
2022/07/01 03:06:58;;;;;;;0.40;0.40;;;24.20;51.40;;;;;;5046851;28;45181;-69
2022/07/01 03:09:24;;;;;;;0.52;0.40;;;24.30;51.60;;;;;;5046890;28;45407;-69
2022/07/01 03:11:52;;;;;;;0.55;0.40;;;24.20;51.60;;;;;;5046951;28;45315;-69
2022/07/01 03:14:18;;;;;;;0.52;0.50;;;24.20;51.60;;;;;;5046670;28;46439;-69
2022/07/01 03:16:47;;;;;;;0.40;0.40;;;24.20;51.60;;;;;;5046642;28;45272;-69
2022/07/01 03:19:13;;;;;;;0.52;0.47;;;24.20;51.50;;;;;;5046696;28;45182;-69
2022/07/01 03:21:42;;;;;;;0.32;0.32;;;24.20;51.50;;;;;;5045718;28;45356;-68
2022/07/01 03:24:09;;;;;;;0.47;0.43;;;24.20;51.40;;;;;;5046401;28;45348;-69
2022/07/01 03:26:35;;;;;;;0.40;0.40;;;24.20;51.40;;;;;;5046642;28;45231;-68
2022/07/01 03:29:02;;;;;;;0.30;0.30;;;24.10;52.10;;;;;;5046562;28;45186;-68
2022/07/01 03:31:29;;;;;;;0.40;0.40;;;24.10;51.60;;;;;;5046865;28;45530;-68
2022/07/01 03:33:56;;;;;;;0.40;0.40;;;24.10;51.50;;;;;;5046284;28;45452;-69
2022/07/01 03:36:23;;;;;;;0.40;0.40;;;24.10;51.50;;;;;;5046235;28;45312;-69
2022/07/01 03:38:51;;;;;;;0.40;0.40;;;24.10;52.10;;;;;;5044024;28;45232;-69
2022/07/01 03:41:18;;;;;;;0.40;0.40;;;24.10;51.60;;;;;;5046610;28;45249;-69
2022/07/01 03:43:45;;;;;;;0.68;0.50;;;24.10;51.50;;;;;;5046165;28;46549;-69
2022/07/01 03:46:12;;;;;;;1.95;0.40;;;24.10;51.70;;;;;;5045953;28;45320;-69
2022/07/01 03:48:39;;;;;;;0.38;0.38;;;24.10;52.20;;;;;;5046479;28;45275;-68
2022/07/01 03:51:06;;;;;;;1.73;0.45;;;24.10;51.70;;;;;;5046581;28;45158;-69
2022/07/01 03:56:19;;;;;;;0.63;0.40;;;24.10;51.70;;;;;;5023381;28;45309;-69
2022/07/01 03:58:46;;;;;;;0.40;0.40;;;24.10;51.60;;;;;;5026133;28;45372;-69
2022/07/01 04:01:12;;;;;;;1.30;0.63;;;24.00;51.60;;;;;;5026180;28;45431;-69
2022/07/01 04:03:39;;;;;;;0.85;0.40;;;24.00;51.60;;;;;;5025598;28;46398;-69
2022/07/01 04:06:06;;;;;;;0.32;0.30;;;24.00;51.60;;;;;;5025698;28;45264;-69
2022/07/01 04:08:33;;;;;;;0.60;0.60;;;24.00;51.50;;;;;;5025696;28;45238;-69
2022/07/01 04:11:00;;;;;;;0.40;0.40;;;24.00;51.60;;;;;;5045632;28;45306;-69
2022/07/01 04:13:28;;;;;;;0.40;0.40;;;24.00;51.70;;;;;;5045391;28;45477;-69
2022/07/01 04:15:55;;;;;;;0.98;0.40;;;24.00;51.60;;;;;;5045734;28;45274;-69
2022/07/01 04:18:22;;;;;;;1.05;0.50;;;24.00;51.60;;;;;;5045886;28;45280;-69
2022/07/01 04:22:32;;;;;;;0.35;0.35;;;24.00;51.60;;;;;;5045712;28;45513;-69
2022/07/01 04:23:34;;;;;;;0.40;0.40;;;24.00;51.60;;;;;;5045220;28;46146;-69
2022/07/01 04:26:02;;;;;;;1.35;0.50;;;23.90;51.70;;;;;;5045414;28;45360;-69
2022/07/01 04:28:30;;;;;;;0.60;0.40;;;23.90;51.60;;;;;;5045547;28;45336;-69
2022/07/01 04:30:57;;;;;;;0.85;0.50;;;23.90;51.60;;;;;;5045854;28;45243;-68
2022/07/01 04:33:24;;;;;;;0.98;0.35;;;23.90;51.60;;;;;;5050803;28;47316;-68
2022/07/01 04:35:51;;;;;;;0.57;0.40;;;23.90;51.70;;;;;;5052048;28;45292;-68
2022/07/01 04:38:18;;;;;;;0.47;0.47;;;23.90;51.70;;;;;;5052213;28;45308;-68
2022/07/01 04:41:58;;;;;;;0.40;0.40;;;23.90;51.70;;;;;;5052267;28;45291;-67
2022/07/01 04:43:32;;;;;;;0.47;0.40;;;23.90;51.70;;;;;;5051775;28;45354;-68
2022/07/01 04:45:59;;;;;;;0.30;0.30;;;23.90;51.60;;;;;;5052096;28;45316;-68
2022/07/01 04:48:26;;;;;;;0.50;0.50;;;23.90;51.60;;;;;;5052187;28;45315;-69
2022/07/01 04:50:52;;;;;;;0.40;0.40;;;23.90;51.70;;;;;;5052254;28;45412;-69
2022/07/01 04:53:19;;;;;;;0.40;0.38;;;23.90;51.70;;;;;;5044576;28;45316;-69
2022/07/01 04:55:46;;;;;;;0.40;0.40;;;23.90;51.70;;;;;;5031751;28;45347;-69
2022/07/01 04:58:13;;;;;;;0.30;0.30;;;23.80;51.70;;;;;;5031871;28;45232;-68
2022/07/01 05:00:42;;;;;;;0.47;0.40;;;23.80;51.70;;;;;;5032112;28;45542;-69
2022/07/01 05:03:09;;;;;;;0.85;0.40;;;23.80;51.70;;;;;;5031857;28;45258;-69
2022/07/01 05:05:36;;;;;;;0.20;0.20;;;23.80;51.80;;;;;;5031870;28;45305;-69
2022/07/01 05:08:03;;;;;;;0.30;0.30;;;23.80;51.80;;;;;;5032184;28;45244;-69
2022/07/01 05:10:30;;;;;;;2.05;0.38;;;23.70;51.90;;;;;;5047763;28;45426;-69
2022/07/01 05:12:57;;;;;;;0.30;0.30;;;23.70;52.00;;;;;;5051639;28;46262;-68
2022/07/01 05:15:23;;;;;;;0.80;0.45;;;23.70;51.90;;;;;;5051603;28;45380;-69
2022/07/01 05:23:20;;;;;;;0.30;0.30;;;23.70;51.90;;;;;;5048963;28;45426;-68
2022/07/01 05:25:46;;;;;;;0.75;0.50;;;23.70;52.00;;;;;;5051694;28;45402;-68
2022/07/01 05:28:13;;;;;;;0.32;0.32;;;23.70;51.90;;;;;;5051667;28;45253;-68
2022/07/01 05:30:40;;;;;;;0.38;0.38;;;23.70;52.00;;;;;;5051696;28;45479;-68
2022/07/01 05:33:08;;;;;;;1.35;0.45;;;23.70;52.00;;;;;;5051524;28;45395;-68
2022/07/01 05:35:35;;;;;;;0.38;0.38;;;23.70;51.90;;;;;;5051286;28;45375;-68
2022/07/01 05:38:02;;;;;;;0.40;0.40;;;23.70;52.00;;;;;;5051404;28;45197;-68
2022/07/01 05:40:29;;;;;;;0.30;0.30;;;23.60;52.00;;;;;;5051646;28;45186;-68
2022/07/01 05:42:55;;;;;;;0.43;0.43;;;23.70;52.00;;;;;;5051285;28;45191;-68
2022/07/01 05:45:22;;;;;;;0.40;0.40;;;23.70;52.00;;;;;;5047139;28;45263;-68
2022/07/01 05:47:49;;;;;;;0.73;0.43;;;23.70;52.10;;;;;;5047804;28;45324;-68
2022/07/01 05:50:17;;;;;;;0.50;0.40;;;23.60;52.00;;;;;;5048046;28;45434;-69
2022/07/01 05:52:45;;;;;;;1.92;0.43;;;23.70;52.00;;;;;;5045326;28;46509;-69
2022/07/01 05:55:12;;;;;;;1.48;0.70;;;23.60;51.90;;;;;;5027645;28;45435;-68
2022/07/01 05:57:39;;;;;;;0.35;0.35;;;23.70;52.00;;;;;;5027793;28;45316;-68
2022/07/01 06:00:09;;;;;;;0.50;0.40;;;23.70;52.10;;;;;;5027928;28;45361;-68
2022/07/01 06:02:36;;;;;;;0.30;0.30;;;23.60;52.00;;;;;;5027453;28;46677;-68
2022/07/01 06:05:02;;;;;;;0.22;0.22;;;23.70;52.00;;;;;;5028208;28;45333;-69
2022/07/01 06:07:31;;;;;;;0.32;0.32;;;23.70;52.00;;;;;;5027742;28;45324;-68
2022/07/01 06:09:58;;;;;;;0.40;0.40;;;23.60;52.00;;;;;;5038862;28;45398;-68
2022/07/01 06:12:25;;;;;;;0.30;0.30;;;23.60;51.90;;;;;;5047317;28;46698;-69
2022/07/01 06:14:52;;;;;;;0.30;0.22;;;23.60;52.00;;;;;;5047283;28;45214;-68
2022/07/01 06:17:19;;;;;;;0.40;0.40;;;23.60;52.00;;;;;;5047566;28;45328;-68
2022/07/01 06:19:45;;;;;;;1.00;0.50;;;23.60;52.00;;;;;;5047569;28;45254;-68
2022/07/01 06:22:16;;;;;;;0.38;0.38;;;23.60;52.00;;;;;;5047290;28;45211;-68
2022/07/01 06:24:44;;;;;;;0.30;0.30;;;23.60;52.10;;;;;;5047327;28;45320;-68
2022/07/01 06:27:11;;;;;;;0.75;0.52;;;23.50;52.10;;;;;;5047424;28;45293;-68
2022/07/01 06:29:38;;;;;;;0.30;0.30;;;23.60;52.10;;;;;;5047530;28;45190;-68
2022/07/01 06:32:06;;;;;;;0.73;0.40;;;23.50;52.00;;;;;;5047006;28;46464;-68
2022/07/01 06:34:32;;;;;;;0.32;0.32;;;23.50;52.00;;;;;;5047134;28;45364;-69
2022/07/01 06:37:01;;;;;;;0.35;0.35;;;23.50;52.00;;;;;;5046844;28;45316;-68
2022/07/01 06:39:28;;;;;;;0.40;0.40;;;23.50;52.10;;;;;;5047410;28;45181;-68
2022/07/01 06:41:56;;;;;;;0.25;0.22;;;23.50;52.10;;;;;;5047115;28;45222;-68
2022/07/01 06:44:23;;;;;;;0.30;0.30;;;23.50;52.10;;;;;;5046894;28;45343;-68
2022/07/01 06:46:50;;;;;;;0.40;0.32;;;23.50;52.00;;;;;;5046685;28;45377;-68
2022/07/01 06:49:17;;;;;;;0.40;0.40;;;23.50;52.10;;;;;;5047179;28;45454;-68
2022/07/01 06:51:44;;;;;;;0.40;0.40;;;23.50;52.10;;;;;;5046802;28;45222;-68
2022/07/01 06:54:11;;;;;;;0.32;0.32;;;23.50;52.20;;;;;;5032440;28;45197;-69
2022/07/01 06:56:37;;;;;;;0.55;0.40;;;23.50;52.10;;;;;;5026711;28;45322;-69
2022/07/01 06:59:06;;;;;;;0.43;0.43;;;23.50;52.10;;;;;;5026997;28;45358;-69
2022/07/01 07:01:32;;;;;;;0.38;0.32;;;23.50;52.20;;;;;;5026526;28;46789;-68
2022/07/01 07:03:59;;;;;;;0.50;0.50;;;23.50;52.20;;;;;;5026590;28;45131;-69
2022/07/01 07:06:26;;;;;;;2.38;0.47;;;23.50;52.20;;;;;;5026671;28;45230;-69
2022/07/01 07:08:53;;;;;;;0.50;0.50;;;23.50;52.20;;;;;;5029007;28;45547;-69
2022/07/01 07:11:20;;;;;;;0.40;0.40;;;23.50;52.30;;;;;;5046657;28;45493;-69
2022/07/01 07:13:47;;;;;;;0.60;0.50;;;23.50;52.30;;;;;;5046402;28;45423;-68
2022/07/01 07:16:15;;;;;;;0.40;0.40;;;23.40;52.20;;;;;;5046429;28;45281;-69
2022/07/01 07:18:42;;;;;;;1.17;0.50;;;23.40;52.20;;;;;;5046668;28;45505;-68
2022/07/01 07:21:09;;;;;;;1.15;0.50;;;23.40;52.50;;;;;;5046214;28;45263;-68
2022/07/01 07:23:37;;;;;;;0.40;0.40;;;23.30;52.60;;;;;;5046332;28;45384;-69
2022/07/01 07:26:04;;;;;;;2.10;0.98;;;23.30;53.00;;;;;;5046546;28;45301;-69
2022/07/01 07:28:31;;;;;;;1.92;1.38;;;23.20;53.60;;;;;;5046471;28;45254;-69
2022/07/01 07:30:58;;;;;;;1.00;0.80;;;23.10;54.60;;;;;;5046104;28;45348;-70
2022/07/01 07:33:26;;;;;;;0.52;0.52;;;23.10;55.00;;;;;;5046070;28;45346;-70
2022/07/01 07:35:53;;;;;;;0.50;0.50;;;23.00;54.90;;;;;;5046084;28;45296;-69
2022/07/01 07:38:20;;;;;;;0.50;0.50;;;23.00;54.80;;;;;;5046330;28;45404;-69
2022/07/01 07:40:47;;;;;;;0.45;0.45;;;22.90;55.30;;;;;;5044606;28;45234;-70
2022/07/01 07:43:13;;;;;;;0.55;0.55;;;22.90;55.00;;;;;;5045604;28;45371;-69
2022/07/01 07:45:41;;;;;;;0.65;0.50;;;22.90;54.90;;;;;;5046056;28;45324;-69
2022/07/01 07:48:09;;;;;;;0.75;0.40;;;22.80;55.00;;;;;;5045813;28;45465;-70
2022/07/01 07:50:37;;;;;;;1.20;0.50;;;22.80;55.50;;;;;;5045983;28;46295;-69
2022/07/01 07:53:04;;;;;;;0.85;0.40;;;22.80;55.60;;;;;;5040530;28;45364;-69
2022/07/01 07:55:31;;;;;;;0.38;0.35;;;22.70;55.90;;;;;;5025915;28;45388;-69
2022/07/01 07:57:58;;;;;;;0.35;0.30;;;22.70;56.20;;;;;;5026027;28;45174;-69
2022/07/01 08:00:25;;;;;;;0.98;0.32;;;22.60;55.70;;;;;;5025317;28;45249;-70
2022/07/01 08:02:51;;;;;;;1.50;0.50;;;22.60;56.10;;;;;;5025498;28;45175;-73
2022/07/01 08:05:18;;;;;;;2.30;1.05;;;22.60;56.40;;;;;;5025747;28;45233;-70
2022/07/01 08:07:47;;;;;;;0.40;0.40;;;22.50;56.80;;;;;;5025321;28;45400;-69
2022/07/01 08:10:14;;;;;;;1.42;0.50;;;22.50;56.40;;;;;;5038712;28;45355;-70
2022/07/01 08:12:40;;;;;;;0.38;0.38;;;22.50;56.60;;;;;;5045744;28;45242;-69
2022/07/01 08:15:08;;;;;;;0.40;0.40;;;22.50;56.50;;;;;;5045604;28;45246;-69
2022/07/01 08:17:34;;;;;;;0.30;0.30;;;22.40;57.10;;;;;;5045473;28;45454;-68
2022/07/01 08:20:01;;;;;;;0.30;0.30;;;22.40;56.70;;;;;;5045382;28;45457;-69
2022/07/01 08:22:28;;;;;;;0.98;0.50;;;22.40;57.20;;;;;;5045485;28;45294;-68
2022/07/01 08:24:56;;;;;;;0.30;0.30;;;22.40;56.50;;;;;;5045507;28;45321;-68
2022/07/01 08:27:23;;;;;;;0.50;0.43;;;22.40;56.80;;;;;;5045658;28;45426;-68
2022/07/01 08:29:50;;;;;;;0.57;0.30;;;22.50;56.70;;;;;;5045379;28;45361;-68
2022/07/01 08:32:18;;;;;;;1.02;0.40;;;22.50;56.40;;;;;;5045306;28;45357;-68
2022/07/01 08:34:45;;;;;;;0.45;0.45;;;22.60;56.20;;;;;;5045223;28;45198;-67
2022/07/01 08:37:12;;;;;;;0.30;0.30;;;22.60;56.20;;;;;;5045748;28;45118;-68
2022/07/01 08:39:38;;;;;;;0.40;0.40;;;22.60;56.20;;;;;;5045129;28;45324;-68
2022/07/01 08:42:07;;;;;;;0.28;0.28;;;22.70;56.40;;;;;;5045508;28;45385;-68
2022/07/01 08:44:34;;;;;;;0.30;0.30;;;22.70;56.20;;;;;;5045461;28;45272;-68
2022/07/01 08:47:00;;;;;;;0.45;0.45;;;22.70;56.30;;;;;;5045185;28;45422;-68
2022/07/01 08:49:27;;;;;;;0.50;0.50;;;22.80;56.20;;;;;;5040357;28;45474;-68
2022/07/01 08:51:54;;;;;;;0.73;0.60;;;22.80;56.20;;;;;;5043227;28;45470;-67
2022/07/01 08:54:21;;;;;;;0.40;0.40;;;22.80;56.00;;;;;;5044055;28;45285;-67
2022/07/01 08:56:48;;;;;;;0.50;0.50;;;22.80;55.80;;;;;;5045244;28;45471;-68
2022/07/01 08:59:23;;;;;;;1.70;0.40;;;22.90;56.10;;;;;;5044877;28;47009;-67
2022/07/01 09:01:55;;;;;;;1.17;0.50;;;22.90;55.90;;;;;;5045068;28;45215;-67
2022/07/01 09:04:22;;;;;;;0.93;0.30;;;22.90;55.50;;;;;;5045123;28;45300;-67
2022/07/01 09:06:49;;;;;;;0.52;0.30;;;22.90;55.40;;;;;;5045206;28;45122;-68
2022/07/01 09:09:17;;;;;;;0.30;0.25;;;22.90;55.40;;;;;;5039262;28;46413;-68
2022/07/01 09:11:53;;;;;;;1.42;0.50;;;22.90;55.60;;;;;;5025068;28;45357;-68
2022/07/01 09:14:21;;;;;;;0.68;0.68;;;23.00;55.70;;;;;;5025128;28;45389;-68
2022/07/01 09:16:49;;;;;;;0.57;0.30;;;23.00;55.50;;;;;;5025000;28;45409;-68
2022/07/01 09:19:17;;;;;;;0.38;0.35;;;23.00;55.30;;;;;;5025895;28;45274;-68
2022/07/01 09:21:43;;;;;;;1.83;0.55;;;23.10;55.20;;;;;;5028146;28;45135;-68
2022/07/01 09:24:24;;;;;;;0.50;0.50;;;23.10;55.10;;;;;;5028399;28;45393;-68
2022/07/01 09:26:58;;;;;;;0.30;0.30;;;23.10;54.80;;;;;;5028458;28;45333;-68
2022/07/01 09:29:32;;;;;;;0.40;0.40;;;23.10;54.80;;;;;;5028088;28;47566;-68
2022/07/01 09:31:59;;;;;;;0.55;0.40;;;23.10;55.10;;;;;;5028149;28;45318;-68
2022/07/01 09:34:26;;;;;;;0.43;0.43;;;23.20;55.00;;;;;;5028073;28;45121;-68
2022/07/01 09:36:53;;;;;;;2.13;0.60;;;23.20;55.00;;;;;;5028171;28;45245;-68
2022/07/01 09:39:20;;;;;;;2.53;0.77;;;23.20;55.00;;;;;;5028032;28;45468;-68
2022/07/01 09:41:47;;;;;;;0.60;0.45;;;23.20;55.00;;;;;;5027981;28;45284;-69
2022/07/01 09:44:14;;;;;;;1.38;0.80;;;23.20;54.70;;;;;;5028065;28;45214;-68
2022/07/01 09:46:54;;;;;;;0.43;0.43;;;23.30;54.60;;;;;;5027724;28;45173;-68
2022/07/01 09:49:21;;;;;;;3.38;0.93;;;23.30;54.50;;;;;;5027647;28;45480;-68
2022/07/01 09:51:50;;;;;;;2.85;0.80;;;23.40;54.50;;;;;;5027629;28;45292;-69
2022/07/01 09:54:17;;;;;;;1.33;0.90;;;23.40;54.30;;;;;;5042780;28;45213;-68
2022/07/01 09:56:43;;;;;;;4.70;1.00;;;23.40;54.30;;;;;;5048014;28;45368;-68
2022/07/01 09:59:10;;;;;;;0.90;0.77;;;23.40;54.00;;;;;;5047863;28;45454;-68
2022/07/01 10:01:38;;;;;;;0.40;0.40;;;23.40;54.30;;;;;;5047689;28;45296;-68
2022/07/01 10:04:08;;;;;;;3.55;0.57;;;23.40;54.40;;;;;;5047153;28;45530;-68
2022/07/01 10:06:51;;;;;;;3.88;0.70;;;23.40;54.30;;;;;;5048028;28;45351;-68
2022/07/01 10:09:57;;;;;;;1.30;0.80;;;23.40;54.10;;;;;;5041768;28;46447;-69
2022/07/01 10:12:35;;;;;;;1.80;0.70;;;23.40;54.10;;;;;;5022537;28;45603;-69
2022/07/01 10:15:02;;;;;;;1.05;0.82;;;23.50;53.90;;;;;;5027662;28;45372;-68
2022/07/01 10:17:30;;;;;;;1.85;0.70;;;23.50;53.80;;;;;;5027776;28;45333;-69
2022/07/01 10:19:58;;;;;;;4.63;1.73;;;23.50;53.50;;;;;;5027405;28;45207;-69
2022/07/01 10:22:26;;;;;;;4.25;1.48;;;23.50;53.50;;;;;;5027290;28;45323;-69
2022/07/01 10:24:53;;;;;;;2.33;1.42;;;23.50;53.30;;;;;;5027515;28;45332;-69
2022/07/01 10:27:23;;;;;;;1.05;0.80;;;23.60;53.30;;;;;;5027491;28;45239;-69
2022/07/01 10:29:50;;;;;;;1.48;0.60;;;23.60;53.10;;;;;;5026614;28;46678;-68
2022/07/01 10:32:27;;;;;;;0.85;0.65;;;23.60;52.90;;;;;;5027160;28;45237;-69
2022/07/01 10:35:05;;;;;;;1.60;0.70;;;23.60;52.30;;;;;;5025806;28;45353;-69
2022/07/01 10:37:32;;;;;;;0.28;0.28;;;23.60;53.00;;;;;;5027278;28;45306;-69
2022/07/01 10:40:00;;;;;;;0.15;0.15;;;23.50;50.40;;;;;;5032886;28;45222;-69
2022/07/01 10:42:30;;;;;;;0.85;0.32;;;23.50;50.90;;;;;;5047133;28;45262;-69
2022/07/01 10:45:02;;;;;;;1.80;0.40;;;23.40;51.10;;;;;;5047164;28;45194;-69
2022/07/01 10:47:28;;;;;;;0.28;0.28;;;23.40;50.80;;;;;;5047072;28;45466;-69
2022/07/01 10:49:57;;;;;;;0.20;0.20;;;23.40;51.60;;;;;;5046864;28;45541;-69
2022/07/01 10:52:25;;;;;;;0.85;0.32;;;23.50;51.40;;;;;;5047030;28;45223;-69
2022/07/01 10:54:55;;;;;;;0.20;0.20;;;23.50;51.50;;;;;;5040975;28;45468;-68
2022/07/01 10:57:30;;;;;;;0.20;0.20;;;23.50;51.40;;;;;;5046288;28;45176;-68
2022/07/01 11:00:18;;;;;;;3.50;0.50;;;23.50;50.20;;;;;;5046698;28;45453;-69
2022/07/01 11:02:45;;;;;;;1.45;0.50;;;23.60;49.80;;;;;;5046271;28;45425;-68
2022/07/01 11:05:13;;;;;;;2.08;0.35;;;23.60;49.60;;;;;;5046276;28;45316;-68
2022/07/01 11:07:42;;;;;;;0.88;0.25;;;23.60;49.10;;;;;;5046945;28;45444;-68
2022/07/01 11:10:10;;;;;;;0.20;0.20;;;23.60;49.60;;;;;;5046256;28;46698;-70
2022/07/01 11:12:37;;;;;;;1.17;0.28;;;23.70;49.50;;;;;;5046761;28;45313;-68
2022/07/01 11:15:05;;;;;;;1.08;0.38;;;23.70;49.30;;;;;;5046828;28;45340;-68
2022/07/01 11:17:32;;;;;;;0.30;0.30;;;23.70;48.60;;;;;;5046937;28;45126;-69
2022/07/01 11:20:01;;;;;;;2.00;0.40;;;23.80;48.80;;;;;;5046812;28;45188;-69
2022/07/01 11:22:29;;;;;;;0.22;0.22;;;23.80;47.70;;;;;;5046530;28;45382;-70
2022/07/01 11:24:58;;;;;;;2.00;0.25;;;23.80;48.10;;;;;;5046746;28;45198;-69
2022/07/01 11:27:25;;;;;;;0.32;0.30;;;23.80;48.50;;;;;;5046740;28;45399;-69
2022/07/01 11:29:54;;;;;;;0.63;0.30;;;23.80;48.80;;;;;;5046578;28;46336;-68
2022/07/01 11:32:25;;;;;;;0.30;0.30;;;23.90;48.60;;;;;;5046616;28;45189;-69
2022/07/01 11:34:52;;;;;;;2.63;0.40;;;23.90;48.60;;;;;;5046730;28;45309;-69
2022/07/01 11:40:07;;;;;;;0.57;0.40;;;24.10;49.70;;;;;;5042396;28;45929;-69
2022/07/01 11:42:34;;;;;;;0.50;0.40;;;24.20;48.20;;;;;;5045202;28;45241;-69
2022/07/01 11:45:01;;;;;;;1.17;0.55;;;24.20;47.70;;;;;;5046478;28;45321;-69
2022/07/01 11:47:28;;;;;;;1.23;0.70;;;24.30;47.50;;;;;;5046343;28;45312;-69
2022/07/01 11:49:55;;;;;;;0.45;0.45;;;24.20;46.80;;;;;;5045907;28;46403;-69
2022/07/01 11:52:22;;;;;;;0.40;0.40;;;24.20;46.40;;;;;;5046414;28;45176;-70
2022/07/01 11:54:50;;;;;;;0.40;0.40;;;24.20;46.60;;;;;;5045261;28;45181;-69
2022/07/01 11:57:19;;;;;;;0.80;0.40;;;24.20;46.90;;;;;;5046471;28;45313;-69
2022/07/01 11:59:47;;;;;;;1.70;0.40;;;24.20;47.10;;;;;;5046157;28;46415;-71
2022/07/01 12:02:14;;;;;;;0.40;0.38;;;24.20;47.30;;;;;;5046096;28;45258;-71
2022/07/01 12:04:41;;;;;;;0.63;0.40;;;24.20;45.90;;;;;;5046043;28;45372;-71
2022/07/01 12:07:10;;;;;;;0.30;0.30;;;24.30;46.30;;;;;;5046348;28;45334;-69
2022/07/01 12:09:36;;;;;;;1.30;0.40;;;24.30;45.40;;;;;;5045725;28;46497;-71
2022/07/01 12:12:04;;;;;;;0.55;0.55;;;24.30;45.60;;;;;;5045512;28;45269;-69
2022/07/01 12:14:33;;;;;;;0.30;0.30;;;24.30;45.40;;;;;;5046157;28;45460;-71
2022/07/01 12:17:01;;;;;;;1.08;0.50;;;24.30;45.30;;;;;;5046224;28;45218;-71
2022/07/01 12:19:29;;;;;;;0.77;0.55;;;24.30;45.60;;;;;;5045803;28;45217;-72
2022/07/01 12:21:57;;;;;;;2.22;0.60;;;24.30;45.60;;;;;;5045901;28;45127;-71
2022/07/01 12:24:24;;;;;;;0.43;0.30;;;24.30;45.50;;;;;;5045867;28;45361;-71
2022/07/01 12:26:59;;;;;;;1.45;0.40;;;24.40;45.40;;;;;;5046443;28;45392;-71
2022/07/01 12:29:27;;;;;;;2.75;0.50;;;24.40;44.90;;;;;;5045488;28;46609;-72
2022/07/01 12:32:01;;;;;;;0.90;0.50;;;24.40;44.70;;;;;;5045228;28;45213;-71
2022/07/01 12:34:38;;;;;;;0.40;0.40;;;24.40;43.80;;;;;;5045827;28;45137;-71
2022/07/01 12:37:11;;;;;;;1.30;0.50;;;24.30;43.60;;;;;;5045838;28;45464;-71
2022/07/01 12:39:45;;;;;;;0.85;0.47;;;24.40;44.00;;;;;;5045610;28;45467;-71
2022/07/01 12:42:21;;;;;;;0.32;0.32;;;24.50;44.30;;;;;;5045806;28;45181;-70
2022/07/01 12:44:48;;;;;;;0.30;0.30;;;24.50;43.90;;;;;;5045740;28;45209;-69
2022/07/01 12:47:21;;;;;;;0.40;0.40;;;24.60;44.00;;;;;;5045215;28;45127;-71
2022/07/01 12:49:47;;;;;;;0.50;0.50;;;24.70;45.10;;;;;;5045208;28;45255;-69
2022/07/01 12:52:24;;;;;;;0.70;0.47;;;24.80;43.70;;;;;;5045241;28;45186;-69
2022/07/01 12:54:51;;;;;;;3.75;0.70;;;24.90;44.40;;;;;;5048722;28;45312;-69
2022/07/01 12:57:18;;;;;;;1.80;0.98;;;25.00;43.20;;;;;;5049361;28;45391;-71
2022/07/01 12:59:45;;;;;;;26.38;15.77;;;25.10;43.20;;;;;;5048708;28;46409;-72
2022/07/01 13:02:12;;;;;;;7.18;5.20;;;25.20;42.90;;;;;;5049144;28;45194;-71